createdAt,value
2018-06-06T00:02:14.400Z,99.90
2018-06-06T00:04:42.727Z,99.90
2018-06-06T00:07:10.227Z,99.90
2018-06-06T00:09:41.865Z,99.90
2018-06-06T00:12:10.133Z,99.90
2018-06-06T00:14:39.387Z,99.90
2018-06-06T00:17:07.685Z,99.90
2018-06-06T00:19:36.138Z,99.90
2018-06-06T00:22:06.466Z,99.90
2018-06-06T00:24:34.728Z,99.90
2018-06-06T00:27:08.629Z,99.90
2018-06-06T00:29:36.902Z,99.90
2018-06-06T00:32:10.105Z,99.90
2018-06-06T00:34:39.442Z,99.90
2018-06-06T00:37:18.160Z,99.90
2018-06-06T00:39:46.424Z,99.90
2018-06-06T00:42:14.729Z,99.90
2018-06-06T00:44:43.000Z,99.90
2018-06-06T00:47:17.499Z,99.90
2018-06-06T00:49:45.770Z,99.90
2018-06-06T00:52:15.918Z,99.90
2018-06-06T00:54:44.915Z,99.90
2018-06-06T00:57:13.220Z,99.90
2018-06-06T00:59:53.041Z,99.90
2018-06-06T01:02:21.321Z,99.90
2018-06-06T01:04:49.612Z,99.90
2018-06-06T01:07:17.881Z,99.90
2018-06-06T01:09:50.574Z,99.90
2018-06-06T01:12:18.846Z,99.90
2018-06-06T01:14:47.153Z,99.90
2018-06-06T01:17:23.835Z,99.90
2018-06-06T01:19:52.138Z,99.90
2018-06-06T01:22:20.414Z,99.90
2018-06-06T01:24:48.718Z,99.90
2018-06-06T01:27:17.995Z,99.90
2018-06-06T01:29:46.294Z,99.90
2018-06-06T01:32:20.127Z,99.90
2018-06-06T01:34:48.420Z,99.90
2018-06-06T01:37:28.863Z,99.90
2018-06-06T01:39:57.153Z,99.90
2018-06-06T01:42:35.849Z,99.90
2018-06-06T01:45:04.137Z,99.90
2018-06-06T01:47:32.392Z,99.90
2018-06-06T01:50:00.688Z,99.90
2018-06-06T01:52:41.031Z,99.90
2018-06-06T01:55:10.401Z,99.90
2018-06-06T01:57:41.383Z,99.90
2018-06-06T02:00:10.708Z,99.90
2018-06-06T02:02:40.965Z,99.90
2018-06-06T02:05:09.790Z,99.90
2018-06-06T02:07:38.089Z,99.90
2018-06-06T02:10:06.380Z,99.90
2018-06-06T02:12:34.642Z,99.90
2018-06-06T02:15:02.921Z,99.90
2018-06-06T02:17:31.188Z,99.90
2018-06-06T02:19:59.489Z,99.90
2018-06-06T02:22:27.774Z,99.90
2018-06-06T02:24:56.060Z,99.90
2018-06-06T02:27:24.316Z,99.90
2018-06-06T02:29:56.180Z,99.90
2018-06-06T02:32:24.449Z,99.90
2018-06-06T02:34:58.229Z,99.90
2018-06-06T02:37:26.496Z,99.90
2018-06-06T02:40:08.700Z,99.90
2018-06-06T02:42:36.961Z,99.90
2018-06-06T02:45:05.257Z,99.90
2018-06-06T02:47:40.813Z,99.90
2018-06-06T02:50:10.613Z,99.90
2018-06-06T02:52:38.900Z,99.90
2018-06-06T02:55:08.079Z,99.90
2018-06-06T02:57:36.377Z,99.90
2018-06-06T03:00:09.226Z,99.90
2018-06-06T03:02:37.514Z,99.90
2018-06-06T03:05:05.785Z,99.90
2018-06-06T03:07:40.561Z,99.90
2018-06-06T03:10:09.792Z,99.90
2018-06-06T03:12:38.070Z,99.90
2018-06-06T03:15:06.358Z,99.90
2018-06-06T03:17:39.990Z,99.90
2018-06-06T03:20:08.915Z,99.90
2018-06-06T03:22:37.210Z,99.90
2018-06-06T03:25:05.477Z,99.90
2018-06-06T03:27:35.747Z,99.90
2018-06-06T03:30:04.019Z,99.90
2018-06-06T03:32:32.329Z,99.90
2018-06-06T03:35:00.585Z,99.90
2018-06-06T03:37:28.845Z,99.90
2018-06-06T03:39:57.141Z,99.90
2018-06-06T03:42:40.310Z,99.90
2018-06-06T03:45:09.917Z,99.90
2018-06-06T03:47:39.268Z,99.90
2018-06-06T03:50:10.728Z,99.90
2018-06-06T03:52:39.337Z,99.90
2018-06-06T03:55:14.697Z,99.90
2018-06-06T03:57:42.993Z,99.90
2018-06-06T04:00:13.174Z,99.90
2018-06-06T04:02:41.466Z,99.90
2018-06-06T04:05:11.012Z,99.90
2018-06-06T04:07:40.454Z,99.90
2018-06-06T04:10:12.360Z,99.90
2018-06-06T04:12:40.647Z,99.90
2018-06-06T04:15:08.904Z,99.90
2018-06-06T04:17:39.216Z,99.90
2018-06-06T04:20:07.476Z,99.90
2018-06-06T04:22:35.764Z,99.90
2018-06-06T04:25:04.033Z,99.90
2018-06-06T04:27:42.116Z,99.90
2018-06-06T04:30:10.371Z,99.90
2018-06-06T04:32:43.481Z,99.90
2018-06-06T04:35:12.617Z,99.90
2018-06-06T04:37:40.882Z,99.90
2018-06-06T04:40:09.996Z,99.90
2018-06-06T04:42:41.588Z,99.90
2018-06-06T04:45:10.537Z,99.90
2018-06-06T04:47:40.761Z,99.90
2018-06-06T04:50:09.054Z,99.90
2018-06-06T04:52:37.325Z,99.90
2018-06-06T04:55:04.845Z,99.90
2018-06-06T04:57:37.452Z,99.90
2018-06-06T05:00:05.746Z,99.90
2018-06-06T05:02:40.496Z,99.90
2018-06-06T05:05:09.586Z,99.90
2018-06-06T05:07:41.664Z,99.90
2018-06-06T05:10:10.542Z,99.90
2018-06-06T05:12:39.810Z,99.90
2018-06-06T05:15:08.067Z,99.90
2018-06-06T05:17:47.648Z,99.90
2018-06-06T05:20:15.904Z,99.90
2018-06-06T05:22:43.395Z,99.90
2018-06-06T05:25:11.684Z,99.90
2018-06-06T05:27:41.172Z,99.90
2018-06-06T05:30:10.532Z,99.90
2018-06-06T05:32:51.451Z,99.90
2018-06-06T05:35:19.737Z,99.90
2018-06-06T05:37:48.000Z,99.90
2018-06-06T05:40:16.292Z,99.90
2018-06-06T05:42:44.732Z,99.90
2018-06-06T05:45:12.982Z,99.90
2018-06-06T05:47:52.788Z,99.90
2018-06-06T05:50:21.080Z,99.90
2018-06-06T05:52:50.328Z,99.90
2018-06-06T05:55:18.628Z,99.90
2018-06-06T05:57:46.917Z,99.90
2018-06-06T06:00:16.353Z,99.90
2018-06-06T06:02:50.456Z,99.90
2018-06-06T06:05:18.708Z,99.90
2018-06-06T06:07:55.004Z,99.90
2018-06-06T06:10:23.470Z,99.90
2018-06-06T06:12:59.217Z,99.90
2018-06-06T06:15:27.480Z,99.90
2018-06-06T06:18:00.517Z,99.90
2018-06-06T06:20:28.789Z,99.90
2018-06-06T06:22:59.904Z,99.90
2018-06-06T06:25:28.168Z,99.90
2018-06-06T06:27:56.418Z,99.90
2018-06-06T06:30:24.793Z,99.90
2018-06-06T06:32:53.002Z,99.90
2018-06-06T06:35:21.308Z,99.90
2018-06-06T06:37:49.578Z,99.90
2018-06-06T06:40:17.837Z,99.90
2018-06-06T06:42:46.124Z,99.90
2018-06-06T06:45:15.092Z,99.90
2018-06-06T06:47:43.384Z,99.90
2018-06-06T06:50:11.648Z,99.90
2018-06-06T06:52:40.689Z,99.90
2018-06-06T06:55:08.972Z,99.90
2018-06-06T06:57:37.224Z,99.90
2018-06-06T07:00:05.513Z,99.90
2018-06-06T07:02:34.676Z,99.90
2018-06-06T07:05:02.988Z,99.90
2018-06-06T07:07:31.245Z,99.90
2018-06-06T07:09:59.512Z,99.90
2018-06-06T07:12:27.800Z,99.90
2018-06-06T07:14:56.056Z,99.90
2018-06-06T07:17:24.345Z,99.90
2018-06-06T07:19:52.609Z,99.90
2018-06-06T07:22:20.896Z,99.90
2018-06-06T07:24:49.148Z,99.90
2018-06-06T07:27:17.440Z,99.90
2018-06-06T07:29:47.059Z,99.90
2018-06-06T07:32:16.262Z,99.90
2018-06-06T07:34:45.500Z,99.90
2018-06-06T07:37:14.288Z,99.90
2018-06-06T07:39:42.575Z,99.90
2018-06-06T07:42:10.862Z,99.90
2018-06-06T07:44:39.854Z,99.90
2018-06-06T07:47:09.264Z,99.90
2018-06-06T07:49:37.525Z,99.90
2018-06-06T07:52:05.808Z,99.90
2018-06-06T07:54:34.074Z,99.90
2018-06-06T07:57:02.358Z,99.90
2018-06-06T07:59:30.618Z,99.90
2018-06-06T08:01:58.912Z,99.90
2018-06-06T08:04:27.168Z,99.90
2018-06-06T08:06:55.476Z,99.90
2018-06-06T08:09:23.736Z,99.90
2018-06-06T08:11:52.025Z,99.90
2018-06-06T08:14:20.317Z,99.90
2018-06-06T08:16:48.611Z,99.90
2018-06-06T08:19:16.868Z,99.90
2018-06-06T08:21:46.418Z,99.90
2018-06-06T08:24:14.764Z,99.90
2018-06-06T08:26:42.288Z,99.90
2018-06-06T08:29:10.564Z,99.90
2018-06-06T08:31:39.849Z,99.90
2018-06-06T08:34:08.180Z,99.90
2018-06-06T08:36:36.449Z,99.90
2018-06-06T08:39:04.716Z,99.90
2018-06-06T08:41:33.010Z,99.90
2018-06-06T08:44:04.802Z,99.90
2018-06-06T08:46:33.101Z,99.90
2018-06-06T08:49:01.371Z,99.90
2018-06-06T08:51:29.672Z,99.90
2018-06-06T08:53:57.933Z,99.90
2018-06-06T08:56:26.264Z,99.90
2018-06-06T08:59:00.844Z,99.90
2018-06-06T09:01:29.104Z,99.90
2018-06-06T09:04:01.444Z,99.90
2018-06-06T09:06:29.697Z,99.90
2018-06-06T09:08:57.956Z,99.90
2018-06-06T09:11:26.245Z,99.90
2018-06-06T09:13:54.541Z,99.90
2018-06-06T09:16:27.935Z,99.90
2018-06-06T09:18:56.227Z,99.90
2018-06-06T09:21:24.520Z,99.90
2018-06-06T09:23:52.797Z,99.90
2018-06-06T09:26:21.144Z,99.90
2018-06-06T09:28:49.411Z,99.90
2018-06-06T09:31:21.367Z,99.90
2018-06-06T09:33:49.680Z,99.90
2018-06-06T09:36:22.350Z,99.90
2018-06-06T09:38:50.640Z,99.90
2018-06-06T09:41:22.665Z,99.90
2018-06-06T09:43:50.924Z,99.90
2018-06-06T09:46:23.906Z,99.90
2018-06-06T09:48:52.171Z,99.90
2018-06-06T09:51:21.391Z,99.90
2018-06-06T09:53:49.684Z,99.90
2018-06-06T09:56:17.995Z,99.90
2018-06-06T09:58:46.257Z,99.90
2018-06-06T10:01:15.736Z,99.90
2018-06-06T10:03:44.635Z,99.90
2018-06-06T10:06:12.941Z,99.90
2018-06-06T10:08:41.229Z,99.90
2018-06-06T10:11:10.808Z,99.90
2018-06-06T10:13:39.097Z,99.90
2018-06-06T10:16:07.393Z,99.90
2018-06-06T10:18:35.691Z,99.90
2018-06-06T10:21:04.016Z,99.90
2018-06-06T10:23:32.287Z,99.90
2018-06-06T10:26:00.589Z,99.90
2018-06-06T10:28:28.853Z,99.90
2018-06-06T10:30:57.185Z,99.90
2018-06-06T10:33:25.449Z,99.90
2018-06-06T10:35:53.722Z,99.90
2018-06-06T10:38:22.011Z,99.90
2018-06-06T10:40:50.324Z,99.90
2018-06-06T10:43:18.636Z,99.90
2018-06-06T10:45:46.907Z,99.90
2018-06-06T10:48:16.380Z,99.90
2018-06-06T10:50:45.455Z,99.90
2018-06-06T10:53:13.019Z,99.90
2018-06-06T10:55:41.310Z,99.90
2018-06-06T10:58:10.970Z,99.90
2018-06-06T11:00:40.673Z,99.90
2018-06-06T11:03:11.892Z,99.90
2018-06-06T11:05:40.198Z,99.90
2018-06-06T11:08:09.424Z,99.90
2018-06-06T11:10:38.866Z,99.90
2018-06-06T11:13:07.153Z,99.90
2018-06-06T11:15:35.420Z,99.90
2018-06-06T11:18:03.702Z,99.90
2018-06-06T11:20:31.988Z,99.90
2018-06-06T11:23:02.192Z,99.90
2018-06-06T11:25:30.497Z,99.90
2018-06-06T11:27:58.767Z,99.90
2018-06-06T11:30:27.081Z,99.90
2018-06-06T11:32:55.368Z,99.90
2018-06-06T11:35:23.674Z,99.90
2018-06-06T11:37:51.176Z,99.90
2018-06-06T11:40:19.518Z,99.90
2018-06-06T11:42:47.794Z,99.70
2018-06-06T11:45:16.092Z,99.90
2018-06-06T11:47:44.354Z,99.60
2018-06-06T11:50:12.645Z,97.30
2018-06-06T11:52:40.144Z,97.40
2018-06-06T11:55:07.649Z,96.60
2018-06-06T11:57:36.953Z,99.90
2018-06-06T12:00:05.224Z,99.90
2018-06-06T12:02:33.509Z,98.80
2018-06-06T12:05:01.761Z,96.00
2018-06-06T12:07:30.045Z,95.50
2018-06-06T12:09:58.344Z,97.30
2018-06-06T12:12:26.605Z,97.00
2018-06-06T12:14:54.913Z,95.00
2018-06-06T12:17:23.181Z,96.40
2018-06-06T12:19:51.452Z,98.80
2018-06-06T12:22:18.973Z,98.90
2018-06-06T12:24:47.267Z,97.90
2018-06-06T12:27:15.574Z,98.80
2018-06-06T12:29:43.850Z,99.90
2018-06-06T12:32:12.138Z,99.90
2018-06-06T12:34:40.457Z,99.90
2018-06-06T12:37:09.599Z,99.20
2018-06-06T12:39:38.671Z,96.80
2018-06-06T12:42:06.969Z,94.10
2018-06-06T12:44:35.285Z,91.00
2018-06-06T12:47:03.556Z,92.30
2018-06-06T12:49:31.820Z,94.60
2018-06-06T12:52:00.116Z,94.80
2018-06-06T12:54:27.630Z,94.80
2018-06-06T12:56:55.900Z,91.50
2018-06-06T12:59:24.190Z,90.80
2018-06-06T13:01:52.624Z,93.00
2018-06-06T13:04:20.916Z,92.30
2018-06-06T13:06:49.204Z,92.10
2018-06-06T13:09:17.475Z,92.30
2018-06-06T13:11:45.768Z,92.50
2018-06-06T13:14:14.032Z,91.00
2018-06-06T13:16:42.322Z,90.10
2018-06-06T13:19:10.507Z,90.10
2018-06-06T13:21:39.681Z,91.00
2018-06-06T13:24:08.639Z,89.30
2018-06-06T13:26:36.900Z,90.30
2018-06-06T13:29:05.153Z,90.00
2018-06-06T13:31:33.446Z,84.10
2018-06-06T13:34:01.745Z,89.00
2018-06-06T13:36:30.017Z,89.90
2018-06-06T13:38:58.313Z,92.20
2018-06-06T13:41:26.566Z,87.50
2018-06-06T13:43:54.823Z,91.60
2018-06-06T13:46:23.122Z,91.90
2018-06-06T13:48:51.427Z,86.00
2018-06-06T13:51:19.692Z,86.30
2018-06-06T13:53:47.945Z,88.70
2018-06-06T13:56:16.241Z,90.00
2018-06-06T13:58:44.529Z,84.20
2018-06-06T14:01:12.847Z,81.40
2018-06-06T14:03:40.383Z,81.50
2018-06-06T14:06:10.011Z,84.30
2018-06-06T14:08:39.683Z,89.60
2018-06-06T14:11:08.768Z,87.30
2018-06-06T14:13:37.105Z,85.60
2018-06-06T14:16:05.329Z,80.00
2018-06-06T14:18:32.820Z,79.90
2018-06-06T14:21:01.110Z,79.60
2018-06-06T14:23:29.412Z,78.20
2018-06-06T14:25:57.685Z,86.10
2018-06-06T14:28:25.988Z,85.20
2018-06-06T14:30:55.344Z,83.80
2018-06-06T14:33:24.353Z,80.20
2018-06-06T14:35:53.277Z,84.00
2018-06-06T14:38:21.610Z,82.00
2018-06-06T14:40:49.905Z,84.30
2018-06-06T14:43:18.162Z,82.20
2018-06-06T14:45:46.462Z,77.50
2018-06-06T14:48:14.732Z,77.20
2018-06-06T14:50:54.802Z,75.90
2018-06-06T14:53:23.633Z,83.30
2018-06-06T14:55:51.930Z,80.00
2018-06-06T14:58:20.199Z,78.30
2018-06-06T15:00:48.493Z,85.10
2018-06-06T15:03:16.756Z,82.20
2018-06-06T15:05:45.056Z,82.80
2018-06-06T15:08:13.359Z,80.30
2018-06-06T15:10:41.619Z,82.10
2018-06-06T15:13:10.933Z,76.50
2018-06-06T15:15:40.613Z,75.40
2018-06-06T15:18:08.908Z,73.50
2018-06-06T15:20:37.180Z,73.90
2018-06-06T15:23:05.436Z,73.70
2018-06-06T15:25:33.727Z,72.70
2018-06-06T15:28:02.025Z,78.60
2018-06-06T15:30:30.285Z,75.80
2018-06-06T15:32:58.575Z,79.50
2018-06-06T15:35:26.865Z,79.50
2018-06-06T15:37:55.129Z,76.50
2018-06-06T15:40:23.476Z,78.20
2018-06-06T15:42:51.752Z,76.40
2018-06-06T15:45:20.007Z,72.00
2018-06-06T15:47:48.292Z,72.80
2018-06-06T15:50:16.550Z,74.50
2018-06-06T15:52:44.849Z,73.90
2018-06-06T15:55:13.105Z,71.20
2018-06-06T15:57:41.377Z,72.50
2018-06-06T16:00:10.857Z,78.20
2018-06-06T16:02:40.064Z,79.00
2018-06-06T16:05:09.398Z,76.60
2018-06-06T16:07:38.845Z,72.00
2018-06-06T16:10:07.135Z,76.70
2018-06-06T16:12:35.438Z,77.20
2018-06-06T16:15:03.735Z,78.30
2018-06-06T16:17:31.224Z,78.50
2018-06-06T16:19:59.516Z,75.30
2018-06-06T16:22:27.773Z,73.10
2018-06-06T16:24:56.060Z,76.00
2018-06-06T16:27:24.352Z,73.40
2018-06-06T16:29:52.609Z,72.00
2018-06-06T16:32:20.864Z,74.70
2018-06-06T16:34:48.399Z,75.50
2018-06-06T16:37:21.925Z,70.70
2018-06-06T16:39:50.217Z,71.80
2018-06-06T16:42:18.489Z,71.20
2018-06-06T16:44:46.748Z,70.30
2018-06-06T16:47:14.281Z,69.80
2018-06-06T16:49:42.537Z,70.10
2018-06-06T16:52:10.465Z,69.40
2018-06-06T16:54:39.684Z,69.60
2018-06-06T16:57:08.895Z,71.50
2018-06-06T16:59:37.169Z,69.80
2018-06-06T17:02:05.450Z,69.50
2018-06-06T17:04:33.737Z,70.10
2018-06-06T17:07:02.009Z,68.40
2018-06-06T17:09:30.285Z,68.60
2018-06-06T17:11:58.560Z,68.10
2018-06-06T17:14:26.829Z,70.60
2018-06-06T17:16:55.813Z,69.80
2018-06-06T17:19:24.236Z,71.40
2018-06-06T17:21:52.508Z,73.10
2018-06-06T17:24:20.825Z,74.60
2018-06-06T17:26:49.097Z,73.80
2018-06-06T17:29:17.395Z,72.90
2018-06-06T17:31:45.672Z,72.00
2018-06-06T17:34:13.184Z,72.00
2018-06-06T17:36:41.527Z,69.70
2018-06-06T17:39:10.621Z,73.50
2018-06-06T17:41:39.460Z,73.90
2018-06-06T17:44:08.954Z,72.40
2018-06-06T17:46:37.245Z,78.40
2018-06-06T17:49:05.516Z,83.70
2018-06-06T17:51:33.798Z,78.40
2018-06-06T17:54:02.053Z,75.10
2018-06-06T17:56:30.348Z,75.20
2018-06-06T17:58:58.637Z,77.00
2018-06-06T18:01:26.931Z,77.40
2018-06-06T18:03:56.544Z,76.70
2018-06-06T18:06:25.151Z,78.80
2018-06-06T18:08:53.437Z,81.50
2018-06-06T18:11:21.700Z,88.30
2018-06-06T18:13:50.003Z,89.70
2018-06-06T18:16:18.270Z,90.90
2018-06-06T18:18:45.796Z,90.80
2018-06-06T18:21:14.082Z,92.80
2018-06-06T18:23:42.349Z,95.70
2018-06-06T18:26:10.643Z,94.60
2018-06-06T18:28:39.874Z,95.10
2018-06-06T18:31:09.189Z,97.20
2018-06-06T18:33:37.461Z,96.50
2018-06-06T18:36:09.020Z,98.00
2018-06-06T18:38:37.292Z,98.70
2018-06-06T18:41:05.585Z,99.20
2018-06-06T18:43:33.851Z,99.90
2018-06-06T18:46:02.141Z,98.70
2018-06-06T18:48:29.665Z,98.70
2018-06-06T18:50:57.958Z,99.90
2018-06-06T18:53:26.254Z,99.20
2018-06-06T18:55:55.420Z,99.90
2018-06-06T18:58:24.198Z,99.90
2018-06-06T19:00:52.453Z,99.90
2018-06-06T19:03:20.761Z,99.90
2018-06-06T19:05:49.033Z,99.90
2018-06-06T19:08:17.339Z,99.80
2018-06-06T19:10:45.596Z,99.90
2018-06-06T19:13:13.880Z,98.10
2018-06-06T19:15:42.157Z,99.90
2018-06-06T19:18:10.451Z,99.90
2018-06-06T19:20:39.728Z,98.70
2018-06-06T19:23:07.993Z,99.90
2018-06-06T19:25:36.281Z,99.90
2018-06-06T19:28:04.540Z,99.90
2018-06-06T19:30:32.831Z,99.60
2018-06-06T19:33:01.121Z,99.80
2018-06-06T19:35:29.372Z,99.90
2018-06-06T19:37:57.681Z,99.90
2018-06-06T19:40:25.937Z,99.90
2018-06-06T19:42:54.228Z,99.90
2018-06-06T19:45:22.514Z,99.90
2018-06-06T19:47:50.809Z,99.90
2018-06-06T19:50:19.086Z,99.90
2018-06-06T19:52:47.385Z,99.90
2018-06-06T19:55:15.652Z,99.90
2018-06-06T19:57:43.948Z,99.90
2018-06-06T20:00:12.208Z,99.90
2018-06-06T20:02:40.505Z,99.90
2018-06-06T20:05:09.670Z,99.90
2018-06-06T20:07:38.735Z,99.90
2018-06-06T20:10:07.033Z,99.90
2018-06-06T20:12:35.294Z,99.90
2018-06-06T20:15:03.545Z,99.90
2018-06-06T20:17:31.823Z,99.90
2018-06-06T20:20:00.113Z,99.90
2018-06-06T20:22:28.399Z,99.90
2018-06-06T20:24:56.662Z,99.90
2018-06-06T20:27:24.241Z,99.90
2018-06-06T20:29:52.535Z,99.90
2018-06-06T20:32:20.831Z,99.90
2018-06-06T20:34:49.123Z,99.90
2018-06-06T20:37:17.414Z,99.90
2018-06-06T20:39:45.677Z,99.90
2018-06-06T20:42:13.220Z,99.90
2018-06-06T20:44:41.493Z,99.90
2018-06-06T20:47:10.914Z,99.90
2018-06-06T20:49:39.871Z,99.90
2018-06-06T20:52:08.109Z,99.90
2018-06-06T20:54:35.673Z,99.90
2018-06-06T20:57:03.967Z,99.90
2018-06-06T20:59:32.226Z,99.90
2018-06-06T21:02:00.524Z,99.90
2018-06-06T21:04:28.804Z,99.90
2018-06-06T21:06:57.092Z,99.90
2018-06-06T21:09:26.216Z,99.90
2018-06-06T21:11:55.567Z,99.90
2018-06-06T21:14:24.256Z,99.90
2018-06-06T21:16:52.548Z,99.90
2018-06-06T21:19:20.804Z,99.90
2018-06-06T21:21:49.101Z,99.90
2018-06-06T21:24:16.603Z,99.90
2018-06-06T21:26:44.890Z,99.90
2018-06-06T21:29:13.146Z,99.90
2018-06-06T21:31:41.447Z,99.90
2018-06-06T21:34:10.541Z,99.90
2018-06-06T21:36:39.890Z,99.90
2018-06-06T21:39:08.153Z,99.90
2018-06-06T21:41:36.448Z,99.90
2018-06-06T21:44:04.696Z,99.90
2018-06-06T21:46:32.993Z,99.90
2018-06-06T21:49:01.240Z,99.90
2018-06-06T21:51:29.512Z,99.90
2018-06-06T21:53:57.808Z,99.90
2018-06-06T21:56:26.061Z,99.90
2018-06-06T21:58:55.100Z,99.90
2018-06-06T22:01:23.361Z,99.90
2018-06-06T22:03:51.648Z,99.90
2018-06-06T22:06:19.136Z,99.90
2018-06-06T22:08:47.424Z,99.90
2018-06-06T22:11:15.728Z,99.90
2018-06-06T22:13:44.000Z,99.90
2018-06-06T22:16:12.285Z,99.90
2018-06-06T22:18:40.540Z,99.90
2018-06-06T22:21:09.837Z,99.90
2018-06-06T22:23:37.362Z,99.90
2018-06-06T22:26:05.614Z,99.90
2018-06-06T22:28:33.860Z,99.90
2018-06-06T22:31:02.146Z,99.90
2018-06-06T22:33:30.437Z,99.90
2018-06-06T22:35:58.688Z,99.90
2018-06-06T22:38:26.985Z,99.90
2018-06-06T22:40:56.519Z,99.90
2018-06-06T22:43:24.841Z,99.90
2018-06-06T22:45:53.091Z,99.90
2018-06-06T22:48:21.387Z,99.90
2018-06-06T22:50:49.655Z,99.90
2018-06-06T22:53:17.919Z,99.90
2018-06-06T22:55:46.204Z,99.90
2018-06-06T22:58:14.502Z,99.90
2018-06-06T23:00:42.800Z,99.90
2018-06-06T23:03:10.289Z,99.90
2018-06-06T23:05:39.734Z,99.90
2018-06-06T23:08:07.994Z,99.90
2018-06-06T23:10:36.277Z,99.90
2018-06-06T23:13:04.532Z,99.90
2018-06-06T23:15:32.825Z,99.90
2018-06-06T23:18:02.002Z,99.90
2018-06-06T23:20:30.293Z,99.90
2018-06-06T23:22:58.549Z,99.90
2018-06-06T23:25:26.842Z,99.90
2018-06-06T23:27:56.369Z,99.90
2018-06-06T23:30:25.464Z,99.90
2018-06-06T23:32:54.461Z,99.90
2018-06-06T23:35:22.708Z,99.90
2018-06-06T23:37:51.010Z,99.90
2018-06-06T23:40:19.342Z,99.90
2018-06-06T23:42:47.614Z,99.90
2018-06-06T23:45:15.893Z,99.90
2018-06-06T23:47:44.148Z,99.90
2018-06-06T23:50:12.768Z,99.90
2018-06-06T23:52:40.268Z,99.90
2018-06-06T23:55:09.260Z,99.90
2018-06-06T23:57:37.548Z,99.90
